createdAt,value
2023-04-04T00:06:58.333Z,4.46
2023-04-04T00:16:57.233Z,4.46
2023-04-04T00:26:56.238Z,6.54
2023-04-04T00:36:55.786Z,4.56
2023-04-04T00:46:55.764Z,4.65
2023-04-04T00:56:55.357Z,3.57
2023-04-04T01:06:54.309Z,4.06
2023-04-04T01:16:55.052Z,6.04
2023-04-04T01:26:55.059Z,4.95
2023-04-04T01:36:54.377Z,4.35
2023-04-04T01:46:53.904Z,6.23
2023-04-04T01:56:53.696Z,4.45
2023-04-04T02:06:52.830Z,3.95
2023-04-04T02:16:52.443Z,4.64
2023-04-04T02:26:51.469Z,5.23
2023-04-04T02:36:51.119Z,4.84
2023-04-04T02:46:50.765Z,6.02
2023-04-04T02:56:50.557Z,4.73
2023-04-04T03:06:49.508Z,3.84
2023-04-04T03:16:49.139Z,4.14
2023-04-04T03:26:48.411Z,5.61
2023-04-04T03:36:47.421Z,4.24
2023-04-04T03:46:47.075Z,3.84
2023-04-04T03:56:46.557Z,4.43
2023-04-04T04:06:45.416Z,2.66
2023-04-04T04:16:46.174Z,4.53
2023-04-04T04:26:47.407Z,4.53
2023-04-04T04:36:51.471Z,3.93
2023-04-04T04:46:52.134Z,3.93
2023-04-04T04:56:51.523Z,5.60
2023-04-04T05:06:50.594Z,2.55
2023-04-04T05:16:50.841Z,2.65
2023-04-04T05:26:49.501Z,3.63
2023-04-04T05:36:48.889Z,4.12
2023-04-04T05:46:48.833Z,5.29
2023-04-04T05:56:50.434Z,3.91
2023-04-04T06:06:49.557Z,3.91
2023-04-04T06:16:49.488Z,4.60
2023-04-04T06:26:52.012Z,4.69
2023-04-04T06:36:52.142Z,3.91
2023-04-04T06:46:51.794Z,3.03
2023-04-04T06:56:52.523Z,2.93
2023-04-04T07:06:51.466Z,2.34
2023-04-04T07:16:50.686Z,8.71
2023-04-04T07:26:49.378Z,3.74
2023-04-04T07:36:48.714Z,6.11
2023-04-04T07:46:52.154Z,4.57
2023-04-04T07:56:48.245Z,11.25
2023-04-04T08:06:47.769Z,8.67
2023-04-04T08:16:46.840Z,4.68
2023-04-04T08:26:49.299Z,19.44
2023-04-04T08:36:46.690Z,5.58
2023-04-04T08:46:45.580Z,12.47
2023-04-04T08:56:44.477Z,8.28
2023-04-04T09:06:43.536Z,4.59
2023-04-04T09:16:42.901Z,5.79
2023-04-04T09:26:41.916Z,9.29
2023-04-04T09:36:40.557Z,4.10
2023-04-04T09:46:40.495Z,6.29
2023-04-04T09:56:41.587Z,5.19
2023-04-04T10:06:40.330Z,13.39
2023-04-04T10:16:39.514Z,3.60
2023-04-04T10:26:38.470Z,13.09
2023-04-04T10:36:37.410Z,13.59
2023-04-04T10:46:36.374Z,17.69
2023-04-04T10:56:35.402Z,10.29
2023-04-04T11:06:34.439Z,10.79
2023-04-04T11:16:33.431Z,15.39
2023-04-04T11:26:32.441Z,12.89
2023-04-04T11:36:31.578Z,29.09
2023-04-04T11:46:30.435Z,22.79
2023-04-04T11:56:29.883Z,15.79
2023-04-04T12:06:28.393Z,16.40
2023-04-04T12:16:27.833Z,8.30
2023-04-04T12:26:28.861Z,38.69
2023-04-04T12:36:27.468Z,13.20
2023-04-04T12:46:26.851Z,51.39
2023-04-04T12:56:25.483Z,26.70
2023-04-04T13:06:25.071Z,20.90
2023-04-04T13:16:23.490Z,14.50
2023-04-04T13:26:22.823Z,21.50
2023-04-04T13:36:22.523Z,12.60
2023-04-04T13:46:21.594Z,19.50
2023-04-04T13:56:21.591Z,25.00
2023-04-04T14:06:20.652Z,21.50
2023-04-04T14:16:19.547Z,20.20
2023-04-04T14:26:18.542Z,14.70
2023-04-04T14:36:18.701Z,13.80
2023-04-04T14:46:19.164Z,11.70
2023-04-04T14:56:18.549Z,22.00
2023-04-04T15:06:17.594Z,22.70
2023-04-04T15:16:17.174Z,32.80
2023-04-04T15:26:16.507Z,28.90
2023-04-04T15:36:15.653Z,34.60
2023-04-04T15:46:14.651Z,16.20
2023-04-04T15:56:13.714Z,16.20
2023-04-04T16:06:12.855Z,7.20
2023-04-04T16:16:11.808Z,7.60
2023-04-04T16:26:11.001Z,15.00
2023-04-04T16:36:09.666Z,14.30
2023-04-04T16:46:08.634Z,14.40
2023-04-04T16:56:07.630Z,14.70
2023-04-04T17:06:07.468Z,10.90
2023-04-04T17:16:06.981Z,27.19
2023-04-04T17:26:06.009Z,15.20
2023-04-04T17:36:04.636Z,17.39
2023-04-04T17:46:05.960Z,16.69
2023-04-04T17:56:04.676Z,13.10
2023-04-04T18:06:06.702Z,14.29
2023-04-04T18:16:07.125Z,16.39
2023-04-04T18:26:06.587Z,17.49
2023-04-04T18:36:06.132Z,11.59
2023-04-04T18:46:05.929Z,15.09
2023-04-04T18:56:05.188Z,8.69
2023-04-04T19:06:04.014Z,6.49
2023-04-04T19:16:03.168Z,9.69
2023-04-04T19:26:02.106Z,4.89
2023-04-04T19:36:01.090Z,5.59
2023-04-04T19:45:59.962Z,3.49
2023-04-04T19:55:58.755Z,6.79
2023-04-04T20:05:57.885Z,7.78
2023-04-04T20:15:58.470Z,5.79
2023-04-04T20:25:57.832Z,7.58
2023-04-04T20:35:56.858Z,5.88
2023-04-04T20:45:55.925Z,5.98
2023-04-04T20:55:55.456Z,4.48
2023-04-04T21:05:54.926Z,7.67
2023-04-04T21:15:54.013Z,8.46
2023-04-04T21:25:52.814Z,7.36
2023-04-04T21:35:51.946Z,6.96
2023-04-04T21:45:50.948Z,3.18
2023-04-04T21:55:50.011Z,5.67
2023-04-04T22:05:48.933Z,4.57
2023-04-04T22:15:47.862Z,5.07
2023-04-04T22:25:46.909Z,5.46
2023-04-04T22:35:46.047Z,5.16
2023-04-04T22:45:45.180Z,5.25
2023-04-04T22:55:43.842Z,6.94
2023-04-04T23:05:42.932Z,8.03
2023-04-04T23:15:43.723Z,5.25
2023-04-04T23:25:42.776Z,10.59
2023-04-04T23:35:42.805Z,3.96
2023-04-04T23:45:42.153Z,6.83
2023-04-04T23:55:41.050Z,4.85
